sensor_id;sensor_type;location;lat;lon;timestamp;P1;durP1;ratioP1;P2;durP2;ratioP2
21681;SDS011;11002;48.256;10.084;2023-05-10T00:15:58;3.55;;;1.20;;
21681;SDS011;11002;48.256;10.084;2023-05-10T00:18:26;0.98;;;0.95;;
21681;SDS011;11002;48.256;10.084;2023-05-10T00:20:53;3.42;;;1.63;;
21681;SDS011;11002;48.256;10.084;2023-05-10T00:31:34;1.20;;;1.10;;
21681;SDS011;11002;48.256;10.084;2023-05-10T00:34:01;2.45;;;1.05;;
21681;SDS011;11002;48.256;10.084;2023-05-10T00:36:29;1.27;;;1.00;;
21681;SDS011;11002;48.256;10.084;2023-05-10T00:38:56;5.78;;;1.10;;
21681;SDS011;11002;48.256;10.084;2023-05-10T00:41:23;1.00;;;1.00;;
21681;SDS011;11002;48.256;10.084;2023-05-10T00:43:51;2.33;;;0.93;;
21681;SDS011;11002;48.256;10.084;2023-05-10T00:46:18;2.25;;;1.05;;
21681;SDS011;11002;48.256;10.084;2023-05-10T00:48:47;2.15;;;1.10;;
21681;SDS011;11002;48.256;10.084;2023-05-10T00:51:15;1.65;;;0.98;;
21681;SDS011;11002;48.256;10.084;2023-05-10T00:53:43;2.25;;;0.80;;
21681;SDS011;11002;48.256;10.084;2023-05-10T00:56:12;2.28;;;1.20;;
21681;SDS011;11002;48.256;10.084;2023-05-10T00:58:39;1.67;;;0.77;;
21681;SDS011;11002;48.256;10.084;2023-05-10T01:01:07;0.85;;;0.75;;
21681;SDS011;11002;48.256;10.084;2023-05-10T01:03:36;0.90;;;0.90;;
21681;SDS011;11002;48.256;10.084;2023-05-10T01:06:05;1.42;;;0.80;;
21681;SDS011;11002;48.256;10.084;2023-05-10T01:08:32;0.55;;;0.55;;
21681;SDS011;11002;48.256;10.084;2023-05-10T01:11:00;0.80;;;0.60;;
21681;SDS011;11002;48.256;10.084;2023-05-10T01:13:30;0.60;;;0.60;;
21681;SDS011;11002;48.256;10.084;2023-05-10T01:15:59;2.50;;;0.60;;
21681;SDS011;11002;48.256;10.084;2023-05-10T01:18:28;0.55;;;0.50;;
21681;SDS011;11002;48.256;10.084;2023-05-10T01:20:59;1.60;;;0.50;;
21681;SDS011;11002;48.256;10.084;2023-05-10T01:23:41;1.17;;;0.40;;
21681;SDS011;11002;48.256;10.084;2023-05-10T01:26:39;0.35;;;0.35;;
21681;SDS011;11002;48.256;10.084;2023-05-10T01:32:43;1.80;;;0.30;;
21681;SDS011;11002;48.256;10.084;2023-05-10T01:35:22;0.90;;;0.20;;
21681;SDS011;11002;48.256;10.084;2023-05-10T01:38:04;0.85;;;0.50;;
21681;SDS011;11002;48.256;10.084;2023-05-10T01:40:39;0.50;;;0.50;;
21681;SDS011;11002;48.256;10.084;2023-05-10T01:43:28;0.60;;;0.40;;
21681;SDS011;11002;48.256;10.084;2023-05-10T01:45:59;0.65;;;0.45;;
21681;SDS011;11002;48.256;10.084;2023-05-10T01:48:37;0.75;;;0.22;;
21681;SDS011;11002;48.256;10.084;2023-05-10T01:51:08;0.30;;;0.30;;
21681;SDS011;11002;48.256;10.084;2023-05-10T01:53:37;0.55;;;0.40;;
21681;SDS011;11002;48.256;10.084;2023-05-10T01:56:06;0.20;;;0.20;;
21681;SDS011;11002;48.256;10.084;2023-05-10T01:58:36;0.68;;;0.28;;
21681;SDS011;11002;48.256;10.084;2023-05-10T02:01:07;0.95;;;0.25;;
21681;SDS011;11002;48.256;10.084;2023-05-10T02:03:37;2.25;;;0.32;;
21681;SDS011;11002;48.256;10.084;2023-05-10T02:06:06;0.30;;;0.30;;
21681;SDS011;11002;48.256;10.084;2023-05-10T02:08:35;1.27;;;0.13;;
21681;SDS011;11002;48.256;10.084;2023-05-10T02:11:03;0.73;;;0.30;;
21681;SDS011;11002;48.256;10.084;2023-05-10T02:13:32;1.33;;;0.40;;
21681;SDS011;11002;48.256;10.084;2023-05-10T02:16:02;1.13;;;0.38;;
21681;SDS011;11002;48.256;10.084;2023-05-10T02:18:31;0.75;;;0.28;;
21681;SDS011;11002;48.256;10.084;2023-05-10T02:21:02;2.45;;;0.40;;
21681;SDS011;11002;48.256;10.084;2023-05-10T02:23:31;3.40;;;0.45;;
21681;SDS011;11002;48.256;10.084;2023-05-10T02:25:59;2.67;;;0.30;;
21681;SDS011;11002;48.256;10.084;2023-05-10T02:28:27;0.93;;;0.40;;
21681;SDS011;11002;48.256;10.084;2023-05-10T02:30:55;1.17;;;0.30;;
21681;SDS011;11002;48.256;10.084;2023-05-10T02:33:23;1.65;;;0.40;;
21681;SDS011;11002;48.256;10.084;2023-05-10T02:35:51;0.13;;;0.13;;
21681;SDS011;11002;48.256;10.084;2023-05-10T02:38:21;1.70;;;0.30;;
21681;SDS011;11002;48.256;10.084;2023-05-10T02:40:50;0.38;;;0.30;;
21681;SDS011;11002;48.256;10.084;2023-05-10T02:43:19;0.22;;;0.22;;
21681;SDS011;11002;48.256;10.084;2023-05-10T02:45:49;2.17;;;0.45;;
21681;SDS011;11002;48.256;10.084;2023-05-10T02:48:16;0.30;;;0.30;;
21681;SDS011;11002;48.256;10.084;2023-05-10T02:50:44;0.73;;;0.30;;
21681;SDS011;11002;48.256;10.084;2023-05-10T02:53:18;3.65;;;0.40;;
21681;SDS011;11002;48.256;10.084;2023-05-10T02:55:51;0.50;;;0.50;;
21681;SDS011;11002;48.256;10.084;2023-05-10T02:58:23;0.50;;;0.45;;
21681;SDS011;11002;48.256;10.084;2023-05-10T03:00:50;0.50;;;0.50;;
21681;SDS011;11002;48.256;10.084;2023-05-10T03:03:18;1.05;;;0.57;;
21681;SDS011;11002;48.256;10.084;2023-05-10T03:05:48;0.45;;;0.43;;
21681;SDS011;11002;48.256;10.084;2023-05-10T03:08:15;2.08;;;0.40;;
21681;SDS011;11002;48.256;10.084;2023-05-10T03:10:47;0.90;;;0.43;;
21681;SDS011;11002;48.256;10.084;2023-05-10T03:13:25;0.15;;;0.10;;
21681;SDS011;11002;48.256;10.084;2023-05-10T03:16:03;2.67;;;0.30;;
21681;SDS011;11002;48.256;10.084;2023-05-10T03:18:37;0.20;;;0.20;;
21681;SDS011;11002;48.256;10.084;2023-05-10T03:21:11;0.20;;;0.20;;
21681;SDS011;11002;48.256;10.084;2023-05-10T03:23:42;7.88;;;0.40;;
21681;SDS011;11002;48.256;10.084;2023-05-10T03:26:15;0.45;;;0.20;;
21681;SDS011;11002;48.256;10.084;2023-05-10T03:28:48;1.90;;;0.20;;
21681;SDS011;11002;48.256;10.084;2023-05-10T03:31:16;0.13;;;0.13;;
21681;SDS011;11002;48.256;10.084;2023-05-10T03:33:47;2.55;;;0.47;;
21681;SDS011;11002;48.256;10.084;2023-05-10T03:36:19;2.88;;;0.20;;
21681;SDS011;11002;48.256;10.084;2023-05-10T03:38:46;2.30;;;0.32;;
21681;SDS011;11002;48.256;10.084;2023-05-10T03:41:16;0.73;;;0.40;;
21681;SDS011;11002;48.256;10.084;2023-05-10T03:43:43;0.63;;;0.20;;
21681;SDS011;11002;48.256;10.084;2023-05-10T03:46:10;0.28;;;0.28;;
21681;SDS011;11002;48.256;10.084;2023-05-10T03:48:38;4.10;;;0.45;;
21681;SDS011;11002;48.256;10.084;2023-05-10T03:51:06;1.65;;;0.20;;
21681;SDS011;11002;48.256;10.084;2023-05-10T03:53:33;2.33;;;0.30;;
21681;SDS011;11002;48.256;10.084;2023-05-10T03:56:00;0.20;;;0.20;;
21681;SDS011;11002;48.256;10.084;2023-05-10T03:58:29;2.47;;;0.40;;
21681;SDS011;11002;48.256;10.084;2023-05-10T04:00:57;5.10;;;0.63;;
21681;SDS011;11002;48.256;10.084;2023-05-10T04:03:25;0.20;;;0.20;;
21681;SDS011;11002;48.256;10.084;2023-05-10T04:05:58;1.98;;;0.20;;
21681;SDS011;11002;48.256;10.084;2023-05-10T04:08:26;4.22;;;0.30;;
21681;SDS011;11002;48.256;10.084;2023-05-10T04:10:53;0.73;;;0.30;;
21681;SDS011;11002;48.256;10.084;2023-05-10T04:13:20;0.40;;;0.30;;
21681;SDS011;11002;48.256;10.084;2023-05-10T04:15:49;1.98;;;0.25;;
21681;SDS011;11002;48.256;10.084;2023-05-10T04:18:16;0.20;;;0.20;;
21681;SDS011;11002;48.256;10.084;2023-05-10T04:20:44;0.35;;;0.35;;
21681;SDS011;11002;48.256;10.084;2023-05-10T04:23:11;0.25;;;0.25;;
21681;SDS011;11002;48.256;10.084;2023-05-10T04:25:39;0.20;;;0.20;;
21681;SDS011;11002;48.256;10.084;2023-05-10T04:28:07;5.03;;;0.40;;
21681;SDS011;11002;48.256;10.084;2023-05-10T04:30:34;5.38;;;0.25;;
21681;SDS011;11002;48.256;10.084;2023-05-10T04:33:03;3.70;;;0.50;;
21681;SDS011;11002;48.256;10.084;2023-05-10T04:35:30;0.88;;;0.30;;
21681;SDS011;11002;48.256;10.084;2023-05-10T04:37:57;1.58;;;0.30;;
21681;SDS011;11002;48.256;10.084;2023-05-10T04:40:25;1.27;;;0.30;;
21681;SDS011;11002;48.256;10.084;2023-05-10T04:42:52;0.50;;;0.20;;
21681;SDS011;11002;48.256;10.084;2023-05-10T04:45:28;4.32;;;0.30;;
21681;SDS011;11002;48.256;10.084;2023-05-10T04:47:55;0.68;;;0.40;;
21681;SDS011;11002;48.256;10.084;2023-05-10T04:50:22;1.08;;;0.30;;
21681;SDS011;11002;48.256;10.084;2023-05-10T04:52:49;0.60;;;0.32;;
21681;SDS011;11002;48.256;10.084;2023-05-10T04:55:17;3.25;;;0.40;;
21681;SDS011;11002;48.256;10.084;2023-05-10T04:57:44;2.33;;;0.52;;
21681;SDS011;11002;48.256;10.084;2023-05-10T05:00:11;0.20;;;0.20;;
21681;SDS011;11002;48.256;10.084;2023-05-10T05:02:43;0.47;;;0.20;;
21681;SDS011;11002;48.256;10.084;2023-05-10T05:05:10;1.38;;;0.20;;
21681;SDS011;11002;48.256;10.084;2023-05-10T05:07:38;2.75;;;0.75;;
21681;SDS011;11002;48.256;10.084;2023-05-10T05:10:06;1.33;;;0.30;;
21681;SDS011;11002;48.256;10.084;2023-05-10T05:12:34;1.27;;;0.30;;
21681;SDS011;11002;48.256;10.084;2023-05-10T05:15:01;0.20;;;0.20;;
21681;SDS011;11002;48.256;10.084;2023-05-10T05:17:29;0.90;;;0.30;;
21681;SDS011;11002;48.256;10.084;2023-05-10T05:19:59;0.30;;;0.25;;
21681;SDS011;11002;48.256;10.084;2023-05-10T05:22:26;0.85;;;0.30;;
21681;SDS011;11002;48.256;10.084;2023-05-10T05:24:53;0.60;;;0.28;;
21681;SDS011;11002;48.256;10.084;2023-05-10T05:27:21;1.65;;;0.30;;
21681;SDS011;11002;48.256;10.084;2023-05-10T05:29:52;2.45;;;0.50;;
21681;SDS011;11002;48.256;10.084;2023-05-10T05:32:19;0.98;;;0.47;;
21681;SDS011;11002;48.256;10.084;2023-05-10T05:34:46;0.50;;;0.30;;
21681;SDS011;11002;48.256;10.084;2023-05-10T05:37:16;0.20;;;0.20;;
21681;SDS011;11002;48.256;10.084;2023-05-10T05:39:44;0.30;;;0.30;;
21681;SDS011;11002;48.256;10.084;2023-05-10T05:42:12;0.80;;;0.30;;
21681;SDS011;11002;48.256;10.084;2023-05-10T05:44:41;1.85;;;0.38;;
21681;SDS011;11002;48.256;10.084;2023-05-10T05:47:09;1.08;;;0.30;;
21681;SDS011;11002;48.256;10.084;2023-05-10T05:49:36;1.23;;;0.45;;
21681;SDS011;11002;48.256;10.084;2023-05-10T05:52:03;0.75;;;0.38;;
21681;SDS011;11002;48.256;10.084;2023-05-10T05:54:32;0.38;;;0.38;;
21681;SDS011;11002;48.256;10.084;2023-05-10T05:57:00;3.45;;;0.40;;
21681;SDS011;11002;48.256;10.084;2023-05-10T05:59:27;1.65;;;0.40;;
21681;SDS011;11002;48.256;10.084;2023-05-10T06:01:55;0.40;;;0.40;;
21681;SDS011;11002;48.256;10.084;2023-05-10T06:04:22;0.40;;;0.40;;
21681;SDS011;11002;48.256;10.084;2023-05-10T06:06:49;1.63;;;0.28;;
21681;SDS011;11002;48.256;10.084;2023-05-10T06:09:16;0.63;;;0.50;;
21681;SDS011;11002;48.256;10.084;2023-05-10T06:11:45;0.50;;;0.50;;
21681;SDS011;11002;48.256;10.084;2023-05-10T06:14:12;0.40;;;0.40;;
21681;SDS011;11002;48.256;10.084;2023-05-10T06:16:40;0.32;;;0.32;;
21681;SDS011;11002;48.256;10.084;2023-05-10T06:19:07;0.50;;;0.40;;
21681;SDS011;11002;48.256;10.084;2023-05-10T06:21:34;0.45;;;0.35;;
21681;SDS011;11002;48.256;10.084;2023-05-10T06:24:01;0.73;;;0.50;;
21681;SDS011;11002;48.256;10.084;2023-05-10T06:26:29;0.40;;;0.40;;
21681;SDS011;11002;48.256;10.084;2023-05-10T06:28:58;3.05;;;1.10;;
21681;SDS011;11002;48.256;10.084;2023-05-10T06:31:26;4.22;;;0.70;;
21681;SDS011;11002;48.256;10.084;2023-05-10T06:33:53;2.78;;;0.50;;
21681;SDS011;11002;48.256;10.084;2023-05-10T06:36:21;0.73;;;0.50;;
21681;SDS011;11002;48.256;10.084;2023-05-10T06:38:50;0.50;;;0.30;;
21681;SDS011;11002;48.256;10.084;2023-05-10T06:41:17;1.30;;;0.30;;
21681;SDS011;11002;48.256;10.084;2023-05-10T06:43:44;0.40;;;0.30;;
21681;SDS011;11002;48.256;10.084;2023-05-10T06:46:13;0.95;;;0.20;;
21681;SDS011;11002;48.256;10.084;2023-05-10T06:48:40;0.40;;;0.35;;
21681;SDS011;11002;48.256;10.084;2023-05-10T06:51:07;0.65;;;0.55;;
21681;SDS011;11002;48.256;10.084;2023-05-10T06:53:34;0.77;;;0.30;;
21681;SDS011;11002;48.256;10.084;2023-05-10T06:56:02;1.00;;;0.40;;
21681;SDS011;11002;48.256;10.084;2023-05-10T06:58:29;2.33;;;0.30;;
21681;SDS011;11002;48.256;10.084;2023-05-10T07:01:01;2.35;;;0.30;;
21681;SDS011;11002;48.256;10.084;2023-05-10T07:03:30;0.98;;;0.40;;
21681;SDS011;11002;48.256;10.084;2023-05-10T07:06:01;1.85;;;0.63;;
21681;SDS011;11002;48.256;10.084;2023-05-10T07:08:29;1.70;;;0.60;;
21681;SDS011;11002;48.256;10.084;2023-05-10T07:11:00;2.45;;;0.82;;
21681;SDS011;11002;48.256;10.084;2023-05-10T07:13:29;0.68;;;0.47;;
21681;SDS011;11002;48.256;10.084;2023-05-10T07:15:57;5.80;;;1.60;;
21681;SDS011;11002;48.256;10.084;2023-05-10T07:18:24;1.67;;;0.40;;
21681;SDS011;11002;48.256;10.084;2023-05-10T07:20:53;1.30;;;0.80;;
21681;SDS011;11002;48.256;10.084;2023-05-10T07:23:20;2.05;;;0.68;;
21681;SDS011;11002;48.256;10.084;2023-05-10T07:25:48;1.33;;;0.40;;
21681;SDS011;11002;48.256;10.084;2023-05-10T07:28:17;0.60;;;0.50;;
21681;SDS011;11002;48.256;10.084;2023-05-10T07:30:45;1.08;;;0.65;;
21681;SDS011;11002;48.256;10.084;2023-05-10T07:33:13;0.68;;;0.40;;
21681;SDS011;11002;48.256;10.084;2023-05-10T07:35:41;0.73;;;0.40;;
21681;SDS011;11002;48.256;10.084;2023-05-10T07:38:09;0.55;;;0.55;;
21681;SDS011;11002;48.256;10.084;2023-05-10T07:40:37;1.38;;;0.60;;
21681;SDS011;11002;48.256;10.084;2023-05-10T07:43:05;0.93;;;0.60;;
21681;SDS011;11002;48.256;10.084;2023-05-10T07:45:33;2.30;;;0.60;;
21681;SDS011;11002;48.256;10.084;2023-05-10T07:48:00;3.78;;;0.68;;
21681;SDS011;11002;48.256;10.084;2023-05-10T07:50:27;1.02;;;0.45;;
21681;SDS011;11002;48.256;10.084;2023-05-10T07:52:55;0.20;;;0.20;;
21681;SDS011;11002;48.256;10.084;2023-05-10T07:55:23;0.30;;;0.30;;
21681;SDS011;11002;48.256;10.084;2023-05-10T07:57:51;0.50;;;0.50;;
21681;SDS011;11002;48.256;10.084;2023-05-10T08:00:19;0.88;;;0.30;;
21681;SDS011;11002;48.256;10.084;2023-05-10T08:02:47;1.17;;;0.40;;
21681;SDS011;11002;48.256;10.084;2023-05-10T08:05:14;1.92;;;0.40;;
21681;SDS011;11002;48.256;10.084;2023-05-10T08:07:42;3.45;;;0.32;;
21681;SDS011;11002;48.256;10.084;2023-05-10T08:10:10;3.17;;;0.90;;
21681;SDS011;11002;48.256;10.084;2023-05-10T08:12:39;0.80;;;0.35;;
21681;SDS011;11002;48.256;10.084;2023-05-10T08:15:06;0.65;;;0.20;;
21681;SDS011;11002;48.256;10.084;2023-05-10T08:17:35;0.50;;;0.50;;
21681;SDS011;11002;48.256;10.084;2023-05-10T08:20:03;3.13;;;1.05;;
21681;SDS011;11002;48.256;10.084;2023-05-10T08:22:30;1.08;;;0.40;;
21681;SDS011;11002;48.256;10.084;2023-05-10T08:24:58;2.55;;;0.40;;
21681;SDS011;11002;48.256;10.084;2023-05-10T08:27:25;3.83;;;0.60;;
21681;SDS011;11002;48.256;10.084;2023-05-10T08:29:54;1.35;;;0.30;;
21681;SDS011;11002;48.256;10.084;2023-05-10T08:32:21;1.10;;;0.47;;
21681;SDS011;11002;48.256;10.084;2023-05-10T08:34:48;2.60;;;0.50;;
21681;SDS011;11002;48.256;10.084;2023-05-10T08:37:16;0.38;;;0.30;;
21681;SDS011;11002;48.256;10.084;2023-05-10T08:39:43;1.27;;;0.60;;
21681;SDS011;11002;48.256;10.084;2023-05-10T08:42:13;2.10;;;0.50;;
21681;SDS011;11002;48.256;10.084;2023-05-10T08:44:46;2.63;;;0.50;;
21681;SDS011;11002;48.256;10.084;2023-05-10T08:47:16;0.60;;;0.40;;
21681;SDS011;11002;48.256;10.084;2023-05-10T08:49:45;1.00;;;0.60;;
21681;SDS011;11002;48.256;10.084;2023-05-10T08:52:16;0.63;;;0.32;;
21681;SDS011;11002;48.256;10.084;2023-05-10T08:54:45;0.50;;;0.50;;
21681;SDS011;11002;48.256;10.084;2023-05-10T08:57:12;0.50;;;0.50;;
21681;SDS011;11002;48.256;10.084;2023-05-10T08:59:40;0.50;;;0.50;;
21681;SDS011;11002;48.256;10.084;2023-05-10T09:02:07;1.20;;;0.43;;
21681;SDS011;11002;48.256;10.084;2023-05-10T09:04:39;1.00;;;0.70;;
21681;SDS011;11002;48.256;10.084;2023-05-10T09:07:07;3.25;;;0.50;;
21681;SDS011;11002;48.256;10.084;2023-05-10T09:09:34;0.73;;;0.22;;
21681;SDS011;11002;48.256;10.084;2023-05-10T09:12:02;1.60;;;0.60;;
21681;SDS011;11002;48.256;10.084;2023-05-10T09:14:30;0.93;;;0.30;;
21681;SDS011;11002;48.256;10.084;2023-05-10T09:17:00;4.38;;;0.30;;
21681;SDS011;11002;48.256;10.084;2023-05-10T09:19:28;0.30;;;0.30;;
21681;SDS011;11002;48.256;10.084;2023-05-10T09:21:56;0.95;;;0.40;;
21681;SDS011;11002;48.256;10.084;2023-05-10T09:24:25;0.75;;;0.30;;
21681;SDS011;11002;48.256;10.084;2023-05-10T09:26:53;0.32;;;0.30;;
21681;SDS011;11002;48.256;10.084;2023-05-10T09:29:23;0.20;;;0.20;;
21681;SDS011;11002;48.256;10.084;2023-05-10T09:31:50;8.10;;;0.30;;
21681;SDS011;11002;48.256;10.084;2023-05-10T09:34:20;1.48;;;0.47;;
21681;SDS011;11002;48.256;10.084;2023-05-10T09:36:55;0.85;;;0.35;;
21681;SDS011;11002;48.256;10.084;2023-05-10T09:39:32;1.27;;;0.30;;
21681;SDS011;11002;48.256;10.084;2023-05-10T09:42:01;0.30;;;0.30;;
21681;SDS011;11002;48.256;10.084;2023-05-10T09:44:30;0.20;;;0.20;;
21681;SDS011;11002;48.256;10.084;2023-05-10T09:46:58;0.77;;;0.32;;
21681;SDS011;11002;48.256;10.084;2023-05-10T09:49:25;0.55;;;0.35;;
21681;SDS011;11002;48.256;10.084;2023-05-10T09:52:04;1.88;;;0.20;;
21681;SDS011;11002;48.256;10.084;2023-05-10T09:54:32;0.45;;;0.30;;
21681;SDS011;11002;48.256;10.084;2023-05-10T09:57:01;0.20;;;0.10;;
21681;SDS011;11002;48.256;10.084;2023-05-10T09:59:28;0.98;;;0.30;;
21681;SDS011;11002;48.256;10.084;2023-05-10T10:01:56;0.45;;;0.30;;
21681;SDS011;11002;48.256;10.084;2023-05-10T10:04:25;3.70;;;0.30;;
21681;SDS011;11002;48.256;10.084;2023-05-10T10:07:01;0.20;;;0.20;;
21681;SDS011;11002;48.256;10.084;2023-05-10T10:09:31;0.40;;;0.38;;
21681;SDS011;11002;48.256;10.084;2023-05-10T10:12:00;0.73;;;0.30;;
21681;SDS011;11002;48.256;10.084;2023-05-10T10:14:28;0.47;;;0.40;;
21681;SDS011;11002;48.256;10.084;2023-05-10T10:16:55;1.98;;;0.20;;
21681;SDS011;11002;48.256;10.084;2023-05-10T10:19:23;1.75;;;0.30;;
21681;SDS011;11002;48.256;10.084;2023-05-10T10:21:50;1.52;;;0.30;;
21681;SDS011;11002;48.256;10.084;2023-05-10T10:24:19;0.47;;;0.30;;
21681;SDS011;11002;48.256;10.084;2023-05-10T10:26:46;1.58;;;0.22;;
21681;SDS011;11002;48.256;10.084;2023-05-10T10:29:20;1.85;;;0.40;;
21681;SDS011;11002;48.256;10.084;2023-05-10T10:31:52;3.47;;;0.30;;
21681;SDS011;11002;48.256;10.084;2023-05-10T10:34:27;0.50;;;0.20;;
21681;SDS011;11002;48.256;10.084;2023-05-10T10:36:56;1.38;;;0.55;;
21681;SDS011;11002;48.256;10.084;2023-05-10T10:39:26;0.38;;;0.28;;
21681;SDS011;11002;48.256;10.084;2023-05-10T10:41:54;2.30;;;0.35;;
21681;SDS011;11002;48.256;10.084;2023-05-10T10:44:22;2.85;;;0.30;;
21681;SDS011;11002;48.256;10.084;2023-05-10T10:47:22;0.80;;;0.47;;
21681;SDS011;11002;48.256;10.084;2023-05-10T10:50:02;1.00;;;0.20;;
21681;SDS011;11002;48.256;10.084;2023-05-10T10:52:31;1.55;;;0.60;;
21681;SDS011;11002;48.256;10.084;2023-05-10T10:55:01;0.20;;;0.20;;
21681;SDS011;11002;48.256;10.084;2023-05-10T10:57:32;0.80;;;0.30;;
21681;SDS011;11002;48.256;10.084;2023-05-10T11:00:17;1.33;;;0.32;;
21681;SDS011;11002;48.256;10.084;2023-05-10T11:02:46;0.90;;;0.20;;
21681;SDS011;11002;48.256;10.084;2023-05-10T11:08:14;1.35;;;0.50;;
21681;SDS011;11002;48.256;10.084;2023-05-10T11:10:51;0.40;;;0.28;;
21681;SDS011;11002;48.256;10.084;2023-05-10T11:13:26;2.75;;;0.60;;
21681;SDS011;11002;48.256;10.084;2023-05-10T11:15:55;4.75;;;0.40;;
21681;SDS011;11002;48.256;10.084;2023-05-10T11:18:24;1.33;;;0.50;;
21681;SDS011;11002;48.256;10.084;2023-05-10T11:20:56;0.77;;;0.10;;
21681;SDS011;11002;48.256;10.084;2023-05-10T11:23:29;1.17;;;0.35;;
21681;SDS011;11002;48.256;10.084;2023-05-10T11:25:59;0.95;;;0.20;;
21681;SDS011;11002;48.256;10.084;2023-05-10T11:28:26;0.70;;;0.30;;
21681;SDS011;11002;48.256;10.084;2023-05-10T11:30:55;1.00;;;0.22;;
21681;SDS011;11002;48.256;10.084;2023-05-10T11:33:24;0.88;;;0.30;;
21681;SDS011;11002;48.256;10.084;2023-05-10T11:35:51;0.22;;;0.20;;
21681;SDS011;11002;48.256;10.084;2023-05-10T11:38:18;1.75;;;0.30;;
21681;SDS011;11002;48.256;10.084;2023-05-10T11:40:45;0.20;;;0.20;;
21681;SDS011;11002;48.256;10.084;2023-05-10T11:43:14;0.20;;;0.20;;
21681;SDS011;11002;48.256;10.084;2023-05-10T11:45:41;0.13;;;0.13;;
21681;SDS011;11002;48.256;10.084;2023-05-10T11:48:09;1.15;;;0.40;;
21681;SDS011;11002;48.256;10.084;2023-05-10T11:50:36;0.40;;;0.22;;
21681;SDS011;11002;48.256;10.084;2023-05-10T11:53:03;0.30;;;0.30;;
21681;SDS011;11002;48.256;10.084;2023-05-10T11:55:33;0.68;;;0.28;;
21681;SDS011;11002;48.256;10.084;2023-05-10T11:58:00;0.40;;;0.30;;
21681;SDS011;11002;48.256;10.084;2023-05-10T12:00:30;0.22;;;0.22;;
21681;SDS011;11002;48.256;10.084;2023-05-10T12:02:59;2.50;;;0.40;;
21681;SDS011;11002;48.256;10.084;2023-05-10T12:05:27;3.40;;;0.38;;
21681;SDS011;11002;48.256;10.084;2023-05-10T12:08:10;0.63;;;0.20;;
21681;SDS011;11002;48.256;10.084;2023-05-10T12:10:38;0.40;;;0.40;;
21681;SDS011;11002;48.256;10.084;2023-05-10T12:13:05;0.30;;;0.30;;
21681;SDS011;11002;48.256;10.084;2023-05-10T12:15:39;0.43;;;0.40;;
21681;SDS011;11002;48.256;10.084;2023-05-10T12:18:07;1.92;;;0.77;;
21681;SDS011;11002;48.256;10.084;2023-05-10T12:20:35;0.47;;;0.43;;
21681;SDS011;11002;48.256;10.084;2023-05-10T12:23:03;1.85;;;0.32;;
21681;SDS011;11002;48.256;10.084;2023-05-10T12:25:31;3.20;;;0.40;;
21681;SDS011;11002;48.256;10.084;2023-05-10T12:28:00;2.83;;;0.60;;
21681;SDS011;11002;48.256;10.084;2023-05-10T12:30:30;1.95;;;0.50;;
21681;SDS011;11002;48.256;10.084;2023-05-10T12:33:00;1.33;;;0.40;;
21681;SDS011;11002;48.256;10.084;2023-05-10T12:35:31;1.45;;;0.63;;
21681;SDS011;11002;48.256;10.084;2023-05-10T12:37:59;0.50;;;0.50;;
21681;SDS011;11002;48.256;10.084;2023-05-10T12:40:27;1.02;;;0.45;;
21681;SDS011;11002;48.256;10.084;2023-05-10T12:42:54;1.20;;;0.40;;
21681;SDS011;11002;48.256;10.084;2023-05-10T12:45:22;0.75;;;0.40;;
21681;SDS011;11002;48.256;10.084;2023-05-10T12:47:49;2.80;;;0.55;;
21681;SDS011;11002;48.256;10.084;2023-05-10T12:50:19;0.90;;;0.57;;
21681;SDS011;11002;48.256;10.084;2023-05-10T12:52:46;2.20;;;0.70;;
21681;SDS011;11002;48.256;10.084;2023-05-10T12:55:13;3.33;;;0.60;;
21681;SDS011;11002;48.256;10.084;2023-05-10T12:57:41;0.50;;;0.50;;
21681;SDS011;11002;48.256;10.084;2023-05-10T13:00:09;1.77;;;0.40;;
21681;SDS011;11002;48.256;10.084;2023-05-10T13:02:37;0.77;;;0.40;;
21681;SDS011;11002;48.256;10.084;2023-05-10T13:05:05;1.17;;;0.70;;
21681;SDS011;11002;48.256;10.084;2023-05-10T13:07:34;1.52;;;0.50;;
21681;SDS011;11002;48.256;10.084;2023-05-10T13:10:02;1.42;;;0.47;;
21681;SDS011;11002;48.256;10.084;2023-05-10T13:12:32;1.13;;;0.50;;
21681;SDS011;11002;48.256;10.084;2023-05-10T13:15:07;0.40;;;0.40;;
21681;SDS011;11002;48.256;10.084;2023-05-10T13:17:34;1.20;;;0.40;;
21681;SDS011;11002;48.256;10.084;2023-05-10T13:20:04;0.45;;;0.30;;
21681;SDS011;11002;48.256;10.084;2023-05-10T13:22:32;0.30;;;0.28;;
21681;SDS011;11002;48.256;10.084;2023-05-10T13:25:01;0.63;;;0.30;;
21681;SDS011;11002;48.256;10.084;2023-05-10T13:27:28;1.05;;;0.30;;
21681;SDS011;11002;48.256;10.084;2023-05-10T13:29:56;2.13;;;0.20;;
21681;SDS011;11002;48.256;10.084;2023-05-10T13:32:24;0.30;;;0.17;;
21681;SDS011;11002;48.256;10.084;2023-05-10T13:34:52;0.60;;;0.32;;
21681;SDS011;11002;48.256;10.084;2023-05-10T13:37:19;0.50;;;0.40;;
21681;SDS011;11002;48.256;10.084;2023-05-10T13:39:47;1.88;;;0.60;;
21681;SDS011;11002;48.256;10.084;2023-05-10T13:42:15;1.98;;;0.40;;
21681;SDS011;11002;48.256;10.084;2023-05-10T13:44:43;3.78;;;0.50;;
21681;SDS011;11002;48.256;10.084;2023-05-10T13:47:10;0.73;;;0.45;;
21681;SDS011;11002;48.256;10.084;2023-05-10T13:49:38;1.42;;;0.30;;
21681;SDS011;11002;48.256;10.084;2023-05-10T13:52:05;0.50;;;0.50;;
21681;SDS011;11002;48.256;10.084;2023-05-10T13:54:33;2.08;;;0.63;;
21681;SDS011;11002;48.256;10.084;2023-05-10T13:57:01;14.73;;;1.20;;
21681;SDS011;11002;48.256;10.084;2023-05-10T13:59:29;7.10;;;1.08;;
21681;SDS011;11002;48.256;10.084;2023-05-10T14:01:57;9.68;;;1.35;;
21681;SDS011;11002;48.256;10.084;2023-05-10T14:04:25;4.93;;;0.80;;
21681;SDS011;11002;48.256;10.084;2023-05-10T14:06:59;1.50;;;0.60;;
21681;SDS011;11002;48.256;10.084;2023-05-10T14:09:27;4.07;;;1.00;;
21681;SDS011;11002;48.256;10.084;2023-05-10T14:11:55;2.28;;;0.73;;
21681;SDS011;11002;48.256;10.084;2023-05-10T14:14:23;1.20;;;1.10;;
21681;SDS011;11002;48.256;10.084;2023-05-10T14:16:51;5.07;;;1.15;;
21681;SDS011;11002;48.256;10.084;2023-05-10T14:19:19;2.75;;;0.90;;
21681;SDS011;11002;48.256;10.084;2023-05-10T14:21:46;1.48;;;0.77;;
21681;SDS011;11002;48.256;10.084;2023-05-10T14:24:14;1.55;;;0.95;;
21681;SDS011;11002;48.256;10.084;2023-05-10T14:26:41;1.90;;;0.80;;
21681;SDS011;11002;48.256;10.084;2023-05-10T14:29:08;8.63;;;0.95;;
21681;SDS011;11002;48.256;10.084;2023-05-10T14:31:36;1.40;;;0.80;;
21681;SDS011;11002;48.256;10.084;2023-05-10T14:34:04;2.13;;;1.00;;
21681;SDS011;11002;48.256;10.084;2023-05-10T14:36:32;1.42;;;1.00;;
21681;SDS011;11002;48.256;10.084;2023-05-10T14:38:59;2.75;;;0.98;;
21681;SDS011;11002;48.256;10.084;2023-05-10T14:41:26;2.28;;;1.10;;
21681;SDS011;11002;48.256;10.084;2023-05-10T14:43:55;1.58;;;0.80;;
21681;SDS011;11002;48.256;10.084;2023-05-10T14:46:22;3.85;;;1.20;;
21681;SDS011;11002;48.256;10.084;2023-05-10T14:48:50;3.70;;;0.93;;
21681;SDS011;11002;48.256;10.084;2023-05-10T14:51:18;2.22;;;1.20;;
21681;SDS011;11002;48.256;10.084;2023-05-10T14:53:47;4.32;;;1.10;;
21681;SDS011;11002;48.256;10.084;2023-05-10T14:56:15;2.00;;;1.30;;
21681;SDS011;11002;48.256;10.084;2023-05-10T14:58:42;2.90;;;1.42;;
21681;SDS011;11002;48.256;10.084;2023-05-10T15:01:09;1.60;;;1.20;;
21681;SDS011;11002;48.256;10.084;2023-05-10T15:03:37;3.08;;;1.10;;
21681;SDS011;11002;48.256;10.084;2023-05-10T15:06:04;3.75;;;1.40;;
21681;SDS011;11002;48.256;10.084;2023-05-10T15:08:33;3.67;;;1.00;;
21681;SDS011;11002;48.256;10.084;2023-05-10T15:11:01;1.65;;;1.10;;
21681;SDS011;11002;48.256;10.084;2023-05-10T15:13:28;1.02;;;0.82;;